logo
Rechercher aéroport 
image banner adimage banner adimage banner ad
image banner ad

LZSE - Senica

Situé à Senica, Slovakia

ICAO - LZSE, IATA -

Données fournies par Airmate  

Information générale

Coordonnées: N48°39'28" E17°19'47"
Élévation : 620 feet MSL.
Variation magnétique : 4.1831° East
Voir autres Aéroports à Trnava

Données opérationnelles

Special qualification required
Heure actuelle UTC:
Heure actuelle locale:
Météo à : LZMC - Malacky ( 32 km )
TAF: TAF LZMC 201030Z 2012/2021 VRB04KT CAVOK TEMPO 2012/2019 21012KT 9999 SCT040 PROB30 TEMPO 2013/2017 SHRA SCT030CB
Voir NOTAMs / SUP AIP / TFR affectant cet aéroport [VIEW]
Fréquences de communication: [VIEW]

Pistes:

Identifiant RWYQFULongueur (ft)Largeur (ft)SurfaceLDA (ft)
12L354398ASPH
30R354398ASPH
12R3543262GRASS
30L3543262GRASS

Coordonnées de l'aéroport

Adresse: Senica Slovakia

Vue satellite de LZSE